Time;durP1;ratioP1;P1;durP2;ratioP2;P2;SDS_P1;SDS_P2;PMS_P1;PMS_P2;Temp;Humidity;BMP_temperature;BMP_pressure;BME280_temperature;BME280_humidity;BME280_pressure;Samples;Min_cycle;Max_cycle;Signal;HPM_P1;HPM_P2
2022/09/22 00:01:36;;;;;;;8.23;1.98;;;;;;;9.36;100.00;102199.00;4825058;29;20038;-79
2022/09/22 00:04:06;;;;;;;7.18;1.50;;;;;;;9.68;100.00;102248.59;4810064;29;20087;-79
2022/09/22 00:06:46;;;;;;;5.53;1.58;;;;;;;9.68;100.00;102249.44;4825430;29;20384;-77
2022/09/22 00:09:14;;;;;;;8.35;1.75;;;;;;;9.71;100.00;102246.44;4809420;29;20041;-79
2022/09/22 00:11:43;;;;;;;7.13;1.80;;;;;;;9.72;100.00;102240.06;4809721;29;20427;-79
2022/09/22 00:14:11;;;;;;;7.55;1.55;;;;;;;9.45;100.00;102189.16;4824827;29;20041;-79
2022/09/22 00:16:47;;;;;;;6.60;1.92;;;;;;;9.75;100.00;102237.03;4809737;29;20130;-78
2022/09/22 00:19:18;;;;;;;4.30;1.58;;;;;;;9.77;100.00;102236.91;4825619;29;20031;-78
2022/09/22 00:21:45;;;;;;;10.13;1.63;;;;;;;9.78;100.00;102238.59;4807806;29;20026;-78
2022/09/22 00:24:10;;;;;;;4.18;1.23;;;;;;;9.54;100.00;102199.81;4793779;29;20069;-78
2022/09/22 00:26:37;;;;;;;2.28;1.60;;;;;;;9.73;100.00;102236.34;4792600;29;20094;-78
2022/09/22 00:29:04;;;;;;;4.18;1.40;;;;;;;9.65;100.00;102220.19;4808591;29;20365;-78
2022/09/22 00:31:29;;;;;;;3.40;1.30;;;;;;;9.75;100.00;102241.59;4808543;29;20022;-78
2022/09/22 00:33:55;;;;;;;5.18;1.27;;;;;;;9.70;100.00;102244.75;4790228;29;20045;-78
2022/09/22 00:36:24;;;;;;;5.65;1.75;;;;;;;9.67;100.00;102244.19;4804548;29;20045;-77
2022/09/22 00:38:51;;;;;;;5.72;1.88;;;;;;;9.56;100.00;102231.88;4823276;29;20037;-78
2022/09/22 00:41:18;;;;;;;9.40;2.10;;;;;;;9.61;100.00;102245.69;4822991;29;20030;-78
2022/09/22 00:43:47;;;;;;;6.45;2.22;;;;;;;9.55;100.00;102239.09;4824635;29;20026;-78
2022/09/22 00:46:15;;;;;;;8.75;2.20;;;;;;;9.47;100.00;102247.13;4823055;29;20034;-78
2022/09/22 00:48:50;;;;;;;6.15;1.80;;;;;;;9.31;100.00;102234.41;4808688;29;20044;-78
2022/09/22 00:51:19;;;;;;;6.50;2.13;;;;;;;9.16;100.00;102217.13;4822686;29;20023;-78
2022/09/22 00:53:45;;;;;;;4.72;2.00;;;;;;;9.31;100.00;102233.56;4823811;29;20035;-78
2022/09/22 00:56:21;;;;;;;7.47;2.20;;;;;;;9.32;100.00;102221.81;4777712;29;20041;-77
2022/09/22 00:58:51;;;;;;;8.55;1.95;;;;;;;9.13;100.00;102193.28;4806346;29;20050;-78
2022/09/22 01:01:18;;;;;;;7.07;1.83;;;;;;;9.25;100.00;102218.91;4824306;29;20026;-78
2022/09/22 01:03:45;;;;;;;7.72;1.77;;;;;;;9.41;100.00;102235.13;4805450;29;20053;-78
2022/09/22 01:06:16;;;;;;;3.38;1.50;;;;;;;9.14;100.00;102189.63;4806770;29;20150;-78
2022/09/22 01:08:43;;;;;;;4.40;1.77;;;;;;;9.43;100.00;102228.75;4808449;29;20091;-78
2022/09/22 01:11:12;;;;;;;3.58;1.70;;;;;;;9.17;100.00;102197.31;4808439;29;20023;-78
2022/09/22 01:14:02;;;;;;;4.80;1.80;;;;;;;9.48;100.00;102235.34;4823502;29;20711;-78
2022/09/22 01:16:46;;;;;;;5.05;1.70;;;;;;;9.48;100.00;102242.59;4823001;29;20026;-78
2022/09/22 01:19:51;;;;;;;3.17;1.63;;;;;;;9.47;100.00;102230.13;4824390;29;20038;-78
2022/09/22 01:22:46;;;;;;;3.88;1.77;;;;;;;9.29;100.00;102203.31;4824514;29;20030;-78
2022/09/22 01:25:42;;;;;;;4.75;1.45;;;;;;;9.47;100.00;102225.63;4820154;29;20038;-78
2022/09/22 01:28:10;;;;;;;3.83;1.90;;;;;;;9.50;100.00;102230.66;4823511;29;20121;-78
2022/09/22 01:31:20;;;;;;;7.13;1.50;;;;;;;9.44;100.00;102211.63;4807747;29;20037;-78
2022/09/22 01:34:03;;;;;;;4.30;1.95;;;;;;;9.25;100.00;102181.28;4799771;29;20038;-78
2022/09/22 01:36:43;;;;;;;3.40;1.70;;;;;;;9.46;100.00;102196.22;4823716;29;20023;-78
2022/09/22 01:39:20;;;;;;;6.32;1.70;;;;;;;9.69;100.00;102228.78;4823161;29;20042;-78
2022/09/22 01:41:52;;;;;;;3.58;1.40;;;;;;;9.40;100.00;102160.06;4808235;29;20030;-78
2022/09/22 01:44:27;;;;;;;6.25;1.60;;;;;;;9.81;100.00;102209.53;4822078;29;20114;-78
2022/09/22 01:46:59;;;;;;;3.10;1.35;;;;;;;9.83;100.00;102212.06;4810592;29;20442;-78
2022/09/22 01:49:29;;;;;;;2.92;1.42;;;;;;;9.69;100.00;102183.91;4805834;29;20049;-78
2022/09/22 01:51:59;;;;;;;4.28;1.60;;;;;;;9.67;100.00;102175.19;4812097;29;20026;-78
2022/09/22 01:54:34;;;;;;;2.88;1.20;;;;;;;9.84;100.00;102205.69;4821501;29;20118;-78
2022/09/22 01:57:13;;;;;;;4.35;1.60;;;;;;;9.30;100.00;102108.28;4798537;29;20067;-78
2022/09/22 01:59:41;;;;;;;4.25;1.35;;;;;;;9.76;100.00;102179.59;4808782;29;20054;-78
2022/09/22 02:02:14;;;;;;;3.85;1.50;;;;;;;9.92;100.00;102210.25;4806653;29;20049;-78
2022/09/22 02:04:47;;;;;;;5.57;1.70;;;;;;;9.91;100.00;102209.41;4808503;29;20406;-78
2022/09/22 02:07:21;;;;;;;5.18;1.50;;;;;;;9.89;100.00;102212.25;4808121;29;20026;-79
2022/09/22 02:09:48;;;;;;;2.78;1.42;;;;;;;9.87;100.00;102205.38;4807883;29;20026;-79
2022/09/22 02:12:17;;;;;;;4.45;1.50;;;;;;;9.74;100.00;102189.69;4821770;29;20034;-79
2022/09/22 02:14:43;;;;;;;4.65;1.63;;;;;;;9.28;100.00;102113.84;4824467;29;20339;-79
2022/09/22 02:17:08;;;;;;;4.55;1.60;;;;;;;9.80;100.00;102205.16;4808223;29;20113;-79
2022/09/22 02:19:39;;;;;;;4.93;1.60;;;;;;;9.80;100.00;102207.00;4826134;29;20034;-79
2022/09/22 02:22:06;;;;;;;4.95;1.50;;;;;;;9.80;100.00;102197.09;4827897;29;20425;-78
2022/09/22 02:24:44;;;;;;;3.75;1.80;;;;;;;9.82;100.00;102197.78;4810815;29;20093;-78
2022/09/22 02:27:25;;;;;;;5.93;1.70;;;;;;;9.82;100.00;102202.31;4826739;29;20031;-78
2022/09/22 02:30:01;;;;;;;4.85;1.70;;;;;;;9.81;100.00;102198.78;4818279;29;20042;-78
2022/09/22 02:32:28;;;;;;;2.83;1.40;;;;;;;9.71;100.00;102184.63;4812649;29;20022;-78
2022/09/22 02:34:54;;;;;;;4.40;1.80;;;;;;;9.73;100.00;102196.03;4806522;29;20030;-78
2022/09/22 02:37:28;;;;;;;2.92;1.52;;;;;;;9.78;100.00;102199.09;4811117;29;20034;-78
2022/09/22 02:40:15;;;;;;;4.57;2.03;;;;;;;9.78;100.00;102199.09;4808289;29;20469;-79
2022/09/22 02:43:03;;;;;;;3.13;1.48;;;;;;;9.66;100.00;102181.56;4826572;29;20050;-78
2022/09/22 02:45:36;;;;;;;3.10;1.75;;;;;;;9.56;100.00;102159.31;4801344;29;20102;-79
2022/09/22 02:48:08;;;;;;;5.78;1.88;;;;;;;9.36;100.00;102129.16;4817320;29;20393;-79
2022/09/22 02:50:35;;;;;;;2.88;1.60;;;;;;;9.68;100.00;102184.09;4831141;29;20027;-78
2022/09/22 02:53:03;;;;;;;3.15;1.50;;;;;;;9.75;100.00;102194.03;4793840;29;20488;-78
2022/09/22 02:55:29;;;;;;;4.32;1.75;;;;;;;9.75;100.00;102196.72;4811296;29;20353;-78
2022/09/22 02:57:55;;;;;;;4.18;1.60;;;;;;;9.78;100.00;102200.94;4825497;29;20034;-78
2022/09/22 03:00:21;;;;;;;3.55;1.45;;;;;;;9.72;100.00;102198.91;4808419;29;20162;-78
2022/09/22 03:02:46;;;;;;;3.75;1.60;;;;;;;9.75;100.00;102194.03;4810189;29;20034;-78
2022/09/22 03:05:12;;;;;;;3.67;1.40;;;;;;;9.62;100.00;102180.19;4825530;29;20034;-78
2022/09/22 03:07:37;;;;;;;6.60;1.70;;;;;;;9.70;100.00;102195.50;4825398;29;20027;-78
2022/09/22 03:10:03;;;;;;;3.63;1.80;;;;;;;9.54;100.00;102169.41;4826578;29;20361;-78
2022/09/22 03:12:28;;;;;;;4.80;1.60;;;;;;;9.32;100.00;102135.84;4808794;29;20035;-79
2022/09/22 03:14:54;;;;;;;5.45;1.50;;;;;;;9.48;100.00;102175.41;4826924;29;20027;-78
2022/09/22 03:17:19;;;;;;;5.38;1.70;;;;;;;9.41;100.00;102157.22;4807156;29;20030;-78
2022/09/22 03:19:44;;;;;;;3.22;1.40;;;;;;;9.53;100.00;102179.28;4809174;29;20117;-78
2022/09/22 03:22:10;;;;;;;9.63;1.50;;;;;;;9.50;100.00;102182.28;4810069;29;20053;-78
2022/09/22 03:24:35;;;;;;;4.65;1.73;;;;;;;9.46;100.00;102183.59;4825705;29;20061;-78
2022/09/22 03:27:00;;;;;;;4.47;1.60;;;;;;;9.44;100.00;102174.88;4810266;29;20053;-78
2022/09/22 03:29:26;;;;;;;4.53;1.75;;;;;;;9.38;100.00;102176.34;4824416;29;20037;-78
2022/09/22 03:31:51;;;;;;;4.43;1.60;;;;;;;9.37;100.00;102173.81;4826064;29;20034;-78
2022/09/22 03:34:16;;;;;;;2.85;1.38;;;;;;;9.35;100.00;102176.66;4808745;29;20113;-78
2022/09/22 03:36:42;;;;;;;5.00;1.60;;;;;;;9.23;100.00;102147.53;4823663;29;20131;-78
2022/09/22 03:39:07;;;;;;;4.40;1.30;;;;;;;9.14;100.00;102141.28;4809578;29;20039;-78
2022/09/22 03:41:33;;;;;;;3.75;1.70;;;;;;;9.25;100.00;102165.19;4825230;29;20087;-78
2022/09/22 03:43:58;;;;;;;3.30;1.50;;;;;;;9.22;100.00;102164.66;4805071;29;20050;-78
2022/09/22 03:46:24;;;;;;;5.20;1.75;;;;;;;9.15;100.00;102169.81;4809746;29;20468;-78
2022/09/22 03:48:50;;;;;;;3.85;1.40;;;;;;;9.07;100.00;102167.03;4824327;29;20453;-78
2022/09/22 03:51:16;;;;;;;3.47;1.45;;;;;;;9.05;100.00;102166.38;4810160;29;20042;-78
2022/09/22 03:53:41;;;;;;;5.97;1.52;;;;;;;8.99;100.00;102151.72;4824588;29;20045;-78
2022/09/22 03:56:13;;;;;;;5.78;1.70;;;;;;;9.03;100.00;102160.31;4794493;29;20038;-79
2022/09/22 03:58:39;;;;;;;4.80;1.70;;;;;;;8.98;100.00;102162.63;4806737;29;20069;-79
2022/09/22 04:01:07;;;;;;;4.63;1.80;;;;;;;8.86;100.00;102148.59;4807459;29;20041;-78
2022/09/22 04:03:33;;;;;;;5.00;1.77;;;;;;;8.55;100.00;102107.91;4819493;29;20118;-78
2022/09/22 04:05:59;;;;;;;3.42;1.60;;;;;;;8.85;100.00;102161.16;4804638;29;20488;-78
2022/09/22 04:08:25;;;;;;;5.25;1.90;;;;;;;8.83;100.00;102156.94;4800346;29;20464;-78
2022/09/22 04:10:50;;;;;;;5.07;1.65;;;;;;;8.80;100.00;102147.34;4816573;29;20026;-78
2022/09/22 04:13:16;;;;;;;2.13;1.48;;;;;;;8.76;100.00;102150.50;4802725;29;20030;-78
2022/09/22 04:15:43;;;;;;;4.95;1.83;;;;;;;8.56;100.00;102131.03;4817072;29;20029;-78
2022/09/22 04:18:11;;;;;;;5.82;1.85;;;;;;;8.19;100.00;102076.53;4817370;29;20041;-78
2022/09/22 04:20:38;;;;;;;3.33;1.85;;;;;;;8.28;100.00;102093.53;4817164;29;20118;-77
2022/09/22 04:23:04;;;;;;;3.67;2.03;;;;;;;8.34;100.00;102098.28;4816363;29;20026;-78
2022/09/22 04:25:30;;;;;;;3.55;1.75;;;;;;;8.60;100.00;102149.34;4819876;29;20038;-80
2022/09/22 04:27:56;;;;;;;4.03;1.98;;;;;;;8.29;100.00;102097.06;4824864;29;20045;-79
2022/09/22 04:30:21;;;;;;;5.38;2.05;;;;;;;8.67;100.00;102155.78;4797773;29;20377;-79
2022/09/22 04:32:46;;;;;;;7.68;2.25;;;;;;;8.57;100.00;102138.94;4792146;29;20488;-79
2022/09/22 04:35:12;;;;;;;5.75;2.70;;;;;;;7.85;100.00;102020.06;4809190;29;20045;-79
2022/09/22 04:37:37;;;;;;;5.55;2.42;;;;;;;8.73;100.00;102146.28;4794492;29;20097;-79
2022/09/22 04:40:03;;;;;;;7.50;2.20;;;;;;;8.63;100.00;102129.44;4809739;29;20125;-79
2022/09/22 04:42:28;;;;;;;4.75;2.05;;;;;;;8.78;100.00;102157.44;4804936;29;20030;-79
2022/09/22 04:44:56;;;;;;;3.65;2.47;;;;;;;8.63;100.00;102118.69;4807344;29;20042;-79
2022/09/22 04:47:21;;;;;;;4.45;2.20;;;;;;;8.84;100.00;102148.75;4798702;29;20650;-79
2022/09/22 04:49:46;;;;;;;6.15;2.35;;;;;;;8.86;100.00;102148.59;4789132;29;20037;-80
2022/09/22 04:52:12;;;;;;;5.47;2.50;;;;;;;8.90;100.00;102148.13;4801305;29;20117;-79
2022/09/22 04:54:37;;;;;;;6.18;2.47;;;;;;;8.96;100.00;102140.44;4773854;29;20058;-78
2022/09/22 04:57:02;;;;;;;3.85;2.10;;;;;;;8.99;100.00;102142.81;4786180;29;20463;-78
2022/09/22 04:59:28;;;;;;;6.25;2.30;;;;;;;9.05;100.00;102144.88;4801990;29;20145;-77
2022/09/22 05:01:54;;;;;;;5.85;2.10;;;;;;;9.08;100.00;102141.91;4788383;29;20038;-79
2022/09/22 05:04:19;;;;;;;5.80;2.10;;;;;;;9.13;100.00;102150.31;4819721;29;20107;-79
2022/09/22 05:06:45;;;;;;;5.63;2.20;;;;;;;9.01;100.00;102112.16;4821827;29;20030;-79
2022/09/22 05:09:13;;;;;;;7.75;2.28;;;;;;;9.22;100.00;102148.53;4792521;29;20428;-78
2022/09/22 05:11:38;;;;;;;7.93;2.45;;;;;;;9.26;100.00;102149.91;4818671;29;20454;-78
2022/09/22 05:14:03;;;;;;;4.72;2.15;;;;;;;9.32;100.00;102147.44;4813121;29;20038;-78
2022/09/22 05:16:30;;;;;;;7.18;2.33;;;;;;;9.39;100.00;102145.78;4822617;29;20038;-79
2022/09/22 05:18:55;;;;;;;6.53;2.35;;;;;;;9.39;100.00;102136.88;4807882;29;20095;-78
2022/09/22 05:21:21;;;;;;;6.75;2.47;;;;;;;9.54;100.00;102146.06;4807954;29;20038;-78
2022/09/22 05:23:46;;;;;;;5.35;2.40;;;;;;;9.51;100.00;102118.66;4807612;29;20461;-78
2022/09/22 05:26:12;;;;;;;10.00;2.85;;;;;;;9.78;100.00;102139.13;4823713;29;20457;-78
2022/09/22 05:28:37;;;;;;;6.43;2.38;;;;;;;9.53;100.00;102081.72;4807899;29;20234;-78
2022/09/22 05:31:03;;;;;;;5.63;2.30;;;;;;;9.97;100.00;102143.41;4792645;29;20369;-79
2022/09/22 05:33:29;;;;;;;4.95;2.00;;;;;;;10.03;100.00;102142.72;4823734;29;20614;-79
2022/09/22 05:35:54;;;;;;;5.53;2.20;;;;;;;10.07;100.00;102136.88;4787178;29;20125;-79
2022/09/22 05:38:19;;;;;;;5.43;2.00;;;;;;;10.11;100.00;102143.63;4814701;29;20065;-78
2022/09/22 05:40:46;;;;;;;10.32;1.83;;;;;;;9.95;100.00;102102.38;4821030;29;20034;-78
2022/09/22 05:43:12;;;;;;;7.38;2.00;;;;;;;10.23;100.00;102137.91;4803330;29;20038;-79
2022/09/22 05:45:37;;;;;;;8.20;2.13;;;;;;;10.19;100.00;102120.44;4800264;29;20530;-79
2022/09/22 05:48:02;;;;;;;5.60;2.10;;;;;;;10.43;100.00;102142.06;4799601;29;20121;-78
2022/09/22 05:50:28;;;;;;;6.43;1.77;;;;;;;10.47;100.00;102118.34;4816469;29;20496;-79
2022/09/22 05:53:07;;;;;;;3.70;1.80;;;;;;;10.82;100.00;102139.53;4800014;29;20392;-78
2022/09/22 05:55:34;;;;;;;6.60;2.22;;;;;;;10.97;100.00;102136.19;4820978;29;20361;-78
2022/09/22 05:57:59;;;;;;;5.60;1.92;;;;;;;10.64;100.00;102058.13;4818803;29;20046;-78
2022/09/22 06:00:26;;;;;;;8.35;2.40;;;;;;;11.15;100.00;102127.94;4817238;29;20070;-78
2022/09/22 06:02:51;;;;;;;5.53;1.60;;;;;;;11.24;100.00;102127.75;4805598;29;20034;-78
2022/09/22 06:05:17;;;;;;;7.85;2.10;;;;;;;11.25;100.00;102096.25;4805896;29;20034;-78
2022/09/22 06:07:42;;;;;;;8.05;1.85;;;;;;;10.93;100.00;102033.38;4787811;29;20074;-79
2022/09/22 06:10:10;;;;;;;8.18;2.00;;;;;;;11.65;100.00;102140.28;4804477;29;20138;-78
2022/09/22 06:12:36;;;;;;;8.20;2.15;;;;;;;11.66;100.00;102148.22;4820662;29;20063;-79
2022/09/22 06:15:05;;;;;;;8.48;1.60;;;;;;;11.70;100.00;102149.53;4804513;29;20038;-78
2022/09/22 06:17:31;;;;;;;6.68;1.80;;;;;;;11.47;100.00;102097.38;4815947;29;20057;-79
2022/09/22 06:19:59;;;;;;;5.13;1.65;;;;;;;11.85;100.00;102143.44;4803953;29;20525;-79
2022/09/22 06:22:25;;;;;;;11.20;1.80;;;;;;;11.16;100.00;102017.31;4807995;29;20062;-79
2022/09/22 06:24:50;;;;;;;9.02;1.95;;;;;;;11.99;100.00;102140.84;4820801;29;20168;-79
2022/09/22 06:27:15;;;;;;;6.47;1.60;;;;;;;11.94;100.00;102128.91;4823910;29;20099;-80
2022/09/22 06:29:41;;;;;;;6.75;1.67;;;;;;;11.79;100.00;102093.72;4780619;29;20057;-78
2022/09/22 06:32:09;;;;;;;5.80;1.60;;;;;;;12.17;100.00;102145.97;4807834;29;20056;-78
2022/09/22 06:34:36;;;;;;;9.23;1.77;;;;;;;12.18;100.00;102134.16;4802848;29;20369;-78
2022/09/22 06:37:03;;;;;;;5.47;1.67;;;;;;;12.33;100.00;102138.81;4821851;29;20368;-79
2022/09/22 06:39:28;;;;;;;5.55;1.63;;;;;;;12.41;100.00;102136.06;4826264;29;20030;-79
2022/09/22 06:41:58;;;;;;;4.80;1.75;;;;;;;12.44;100.00;102136.53;4829180;29;20117;-78
2022/09/22 06:44:24;;;;;;;5.60;1.90;;;;;;;12.50;100.00;102144.97;4807955;29;20042;-79
2022/09/22 06:46:49;;;;;;;7.40;2.17;;;;;;;12.47;100.00;102135.34;4822606;29;20393;-78
2022/09/22 06:49:14;;;;;;;5.13;2.28;;;;;;;12.65;100.00;102141.31;4809054;29;20034;-79
2022/09/22 06:51:40;;;;;;;7.93;2.22;;;;;;;12.70;100.00;102144.28;4807503;29;20121;-78
2022/09/22 06:54:06;;;;;;;5.22;1.70;;;;;;;12.64;100.00;102131.50;4822994;29;20114;-79
2022/09/22 06:56:42;;;;;;;6.22;2.20;;;;;;;13.01;100.00;102135.25;4793854;29;20538;-78
2022/09/22 06:59:13;;;;;;;6.63;1.83;;;;;;;13.29;100.00;102142.81;4812470;29;20064;-78
2022/09/22 07:01:40;;;;;;;7.93;2.10;;;;;;;13.55;100.00;102145.09;4793768;29;20458;-79
2022/09/22 07:04:06;;;;;;;7.70;1.60;;;;;;;13.70;100.00;102137.78;4807636;29;20035;-79
2022/09/22 07:06:32;;;;;;;9.10;1.77;;;;;;;13.70;100.00;102121.56;4808537;29;20458;-79
2022/09/22 07:08:58;;;;;;;6.97;1.88;;;;;;;13.65;100.00;102106.94;4824584;29;20041;-79
2022/09/22 07:11:23;;;;;;;6.00;1.70;;;;;;;13.80;100.00;102113.16;4808027;29;20404;-79
2022/09/22 07:13:52;;;;;;;7.53;1.50;;;;;;;13.97;100.00;102133.59;4798103;29;20426;-80
2022/09/22 07:16:20;;;;;;;5.25;1.48;;;;;;;13.91;100.00;102120.81;4811965;29;20391;-79
2022/09/22 07:18:51;;;;;;;6.88;1.80;;;;;;;14.00;100.00;102124.22;4821983;29;20105;-78
2022/09/22 07:21:23;;;;;;;4.00;1.10;;;;;;;14.03;100.00;102119.28;4821099;29;20034;-79
2022/09/22 07:23:50;;;;;;;2.72;1.00;;;;;;;14.31;100.00;102137.53;4809368;29;20099;-79
2022/09/22 07:26:37;;;;;;;4.72;1.20;;;;;;;14.56;100.00;102129.88;4798633;29;20037;-79
2022/09/22 07:29:06;;;;;;;5.25;1.10;;;;;;;14.64;100.00;102102.69;4816852;29;20056;-79
2022/09/22 07:31:33;;;;;;;7.70;1.42;;;;;;;14.62;100.00;102093.91;4826648;29;20038;-80
2022/09/22 07:33:59;;;;;;;4.70;1.27;;;;;;;14.64;100.00;102081.00;4832350;29;20064;-81
2022/09/22 07:36:27;;;;;;;4.78;0.98;;;;;;;15.15;100.00;102131.44;4831287;29;20397;-80
2022/09/22 07:38:56;;;;;;;4.57;1.10;;;;;;;15.23;100.00;102142.13;4815753;29;20046;-80
2022/09/22 07:41:30;;;;;;;5.57;1.05;;;;;;;15.26;100.00;102136.31;4811639;29;20034;-79
2022/09/22 07:46:42;;;;;;;4.70;1.30;;;;;;;15.22;100.00;102135.03;4824480;29;20472;-78
2022/09/22 07:49:08;;;;;;;6.35;2.10;;;;;;;15.28;100.00;102137.81;4794065;29;20046;-77
2022/09/22 07:51:33;;;;;;;5.95;1.90;;;;;;;15.27;100.00;102136.13;4790218;29;20106;-78
2022/09/22 07:54:03;;;;;;;6.00;1.90;;;;;;;15.34;100.00;102141.59;4824931;29;20038;-78
2022/09/22 07:56:29;;;;;;;4.03;1.85;;;;;;;15.26;100.00;102129.03;4822770;29;20046;-78
2022/09/22 07:58:54;;;;;;;8.48;3.90;;;;;;;15.32;100.00;102145.53;4776975;29;1453435;-78
2022/09/22 08:01:23;;;;;;;7.32;2.33;;;;;;;15.26;100.00;102139.03;4808211;29;20142;-78
2022/09/22 08:03:49;;;;;;;7.95;1.67;;;;;;;15.21;100.00;102142.34;4824874;29;20030;-78
2022/09/22 08:06:17;;;;;;;5.63;1.63;;;;;;;15.20;100.00;102140.69;4809225;29;20464;-78
2022/09/22 08:08:51;;;;;;;7.65;1.73;;;;;;;15.15;100.00;102134.16;4809455;29;20122;-78
2022/09/22 08:11:18;;;;;;;6.05;1.50;;;;;;;15.13;100.00;102145.22;4792844;29;20054;-78
2022/09/22 08:13:53;;;;;;;8.15;1.30;;;;;;;14.87;100.00;102107.88;4809979;29;20269;-77
2022/09/22 08:16:21;;;;;;;3.50;1.00;;;;;;;15.04;100.00;102147.22;4809056;29;20027;-77
2022/09/22 08:18:55;;;;;;;4.68;1.02;;;;;;;15.03;100.00;102147.41;4807951;29;20042;-77
2022/09/22 08:21:25;;;;;;;5.28;0.93;;;;;;;14.92;100.00;102148.78;4808123;29;20477;-77
2022/09/22 08:23:51;;;;;;;8.52;0.95;;;;;;;14.89;100.00;102142.91;4808271;29;20053;-77
2022/09/22 08:26:19;;;;;;;4.82;0.90;;;;;;;14.91;100.00;102147.09;4823505;29;20086;-77
2022/09/22 08:28:45;;;;;;;4.68;0.88;;;;;;;14.72;100.00;102112.53;4810884;29;20045;-77
2022/09/22 08:31:12;;;;;;;3.60;0.80;;;;;;;15.01;100.00;102134.06;4808646;29;20031;-78
2022/09/22 08:33:39;;;;;;;5.90;0.98;;;;;;;15.14;100.00;102148.75;4809551;29;20038;-78
2022/09/22 08:36:05;;;;;;;4.72;0.90;;;;;;;15.27;100.00;102149.69;4823780;29;20031;-78
2022/09/22 08:38:32;;;;;;;3.45;0.80;;;;;;;15.42;100.00;102144.16;4808726;29;20390;-78
2022/09/22 08:41:29;;;;;;;5.32;0.82;;;;;;;15.49;100.00;102149.63;4822780;29;20122;-79
2022/09/22 08:44:00;;;;;;;5.03;0.80;;;;;;;15.49;100.00;102146.91;4808764;29;20114;-79
2022/09/22 08:46:31;;;;;;;1.85;0.50;;;;;;;15.52;100.00;102155.47;4810168;29;20038;-79
2022/09/22 08:52:39;;;;;;;2.47;0.65;;;;;;;15.70;100.00;102156.91;4825153;29;20114;-79
2022/09/22 08:55:14;;;;;;;5.15;1.10;;;;;;;15.67;100.00;102158.13;4826162;29;20077;-78
2022/09/22 08:57:50;;;;;;;4.78;1.20;;;;;;;15.66;99.82;102152.84;4825054;29;20042;-79
2022/09/22 09:00:17;;;;;;;3.85;0.80;;;;;;;15.65;99.71;102149.31;4825009;29;20058;-80
2022/09/22 09:02:48;;;;;;;4.93;1.10;;;;;;;15.85;98.50;102159.47;4825864;29;20458;-79
2022/09/22 09:05:41;;;;;;;3.55;0.80;;;;;;;15.84;96.73;102155.09;4806585;29;20044;-79
2022/09/22 09:08:18;;;;;;;4.47;0.82;;;;;;;15.85;97.76;102154.03;4825874;29;20018;-79
2022/09/22 09:11:29;;;;;;;6.80;1.13;;;;;;;15.94;96.56;102144.69;4821444;29;20041;-79
2022/09/22 09:14:12;;;;;;;3.10;0.82;;;;;;;16.00;96.81;102164.78;4822866;29;20446;-79
2022/09/22 09:17:02;;;;;;;3.30;0.88;;;;;;;15.97;95.55;102131.56;4825040;29;20026;-79
2022/09/22 09:19:40;;;;;;;4.03;1.00;;;;;;;16.17;94.82;102152.50;4808653;29;20038;-79
2022/09/22 09:22:11;;;;;;;3.15;0.85;;;;;;;16.05;94.69;102141.38;4809789;29;20125;-80
2022/09/22 09:24:44;;;;;;;3.38;0.70;;;;;;;16.16;94.34;102167.16;4810555;29;20091;-80
2022/09/22 09:27:17;;;;;;;3.00;0.70;;;;;;;16.01;94.09;102142.84;4822229;29;20039;-80
2022/09/22 09:30:16;;;;;;;2.65;0.60;;;;;;;16.17;91.16;102163.38;4812957;29;20121;-79
2022/09/22 09:33:10;;;;;;;3.20;0.60;;;;;;;16.31;92.00;102159.66;4815213;29;20117;-79
2022/09/22 09:35:44;;;;;;;3.00;0.80;;;;;;;16.31;92.39;102143.34;4825621;29;20038;-80
2022/09/22 09:38:21;;;;;;;6.22;1.08;;;;;;;16.47;92.67;102163.06;4814631;29;20055;-79
2022/09/22 09:40:54;;;;;;;3.70;0.90;;;;;;;16.45;92.77;102138.78;4824568;29;20031;-81
2022/09/22 09:43:41;;;;;;;5.43;1.30;;;;;;;16.62;92.37;102155.53;4831667;29;20048;-79
2022/09/22 09:46:18;;;;;;;8.70;0.98;;;;;;;16.71;92.23;102159.75;4813033;29;20042;-79
2022/09/22 09:49:13;;;;;;;5.03;0.95;;;;;;;16.45;90.60;102139.63;4824237;29;20018;-78
2022/09/22 09:51:42;;;;;;;;;;;;;;;16.59;91.77;102158.72;4810835;29;20060;-79
2022/09/22 09:54:11;;;;;;;5.60;1.08;;;;;;;16.57;91.75;102156.19;4793839;29;19952;-79
2022/09/22 09:57:13;;;;;;;2.90;0.88;;;;;;;16.54;91.76;102132.13;4824588;29;20051;-79
2022/09/22 10:02:35;;;;;;;5.15;0.90;;;;;;;16.82;91.25;102151.03;4809954;29;20049;-79
2022/09/22 10:05:06;;;;;;;2.90;0.75;;;;;;;16.79;90.23;102145.19;4809480;29;20072;-79
2022/09/22 10:07:43;;;;;;;6.20;1.00;;;;;;;16.76;89.86;102137.44;4826949;29;20035;-79
2022/09/22 10:10:36;;;;;;;4.13;0.85;;;;;;;16.75;88.95;102138.47;4782787;29;20099;-79
2022/09/22 10:13:05;;;;;;;5.68;0.93;;;;;;;16.72;88.97;102150.56;4806722;29;20123;-78
2022/09/22 10:15:33;;;;;;;7.45;1.30;;;;;;;16.83;88.56;102151.88;4807654;29;20045;-78
2022/09/22 10:17:58;;;;;;;3.58;0.80;;;;;;;16.94;87.90;102136.81;4824414;29;20042;-78
2022/09/22 10:20:33;;;;;;;4.28;1.00;;;;;;;16.97;86.98;102153.53;4809994;29;20042;-78
2022/09/22 10:23:20;;;;;;;4.25;0.80;;;;;;;16.68;86.93;102106.63;4808143;29;20061;-78
2022/09/22 10:25:47;;;;;;;2.88;0.88;;;;;;;16.93;86.08;102148.75;4824691;29;20033;-78
2022/09/22 10:28:20;;;;;;;2.50;0.77;;;;;;;16.98;85.58;102148.94;4823215;29;20018;-78
2022/09/22 10:31:03;;;;;;;5.10;1.00;;;;;;;17.03;85.40;102147.28;4809424;29;20031;-77
2022/09/22 10:33:29;;;;;;;3.50;0.88;;;;;;;17.19;85.09;102148.72;4809707;29;20418;-78
2022/09/22 10:36:06;;;;;;;4.72;0.90;;;;;;;17.03;83.21;102146.44;4780503;29;20030;-78
2022/09/22 10:38:36;;;;;;;5.03;0.80;;;;;;;16.98;83.07;102135.34;4817941;29;20361;-78
2022/09/22 10:41:27;;;;;;;4.25;0.70;;;;;;;16.83;82.94;102114.63;4826981;29;20445;-77
2022/09/22 10:44:02;;;;;;;3.67;0.85;;;;;;;17.04;82.85;102145.38;4809134;29;20454;-78
2022/09/22 10:46:39;;;;;;;4.70;1.10;;;;;;;17.10;82.64;102144.56;4812559;29;20063;-79
2022/09/22 10:49:35;;;;;;;3.45;1.17;;;;;;;17.23;82.42;102147.25;4813823;29;20026;-79
2022/09/22 10:52:31;;;;;;;3.40;0.80;;;;;;;17.46;81.56;102148.69;4831006;29;20038;-78
2022/09/22 10:55:09;;;;;;;3.47;0.95;;;;;;;17.58;81.62;102145.13;4827049;29;20037;-78
2022/09/22 11:01:11;;;;;;;4.43;0.75;;;;;;;17.71;80.37;102141.50;4790890;29;20085;-79
2022/09/22 11:03:52;;;;;;;4.38;1.10;;;;;;;17.76;79.51;102141.75;4790142;30;20058;-79
2022/09/22 11:12:50;;;;;;;3.00;0.63;;;;;;;17.69;78.37;102140.06;4789460;30;20099;-77
2022/09/22 11:15:41;;;;;;;4.97;0.90;;;;;;;17.90;77.35;102131.63;4789001;30;20355;-78
2022/09/22 11:18:31;;;;;;;3.65;1.02;;;;;;;18.10;76.04;102141.63;4789819;30;20056;-78
2022/09/22 11:21:31;;;;;;;8.50;0.88;;;;;;;18.03;75.40;102109.78;4804763;29;20465;-81
2022/09/22 11:24:29;;;;;;;3.67;0.80;;;;;;;18.24;74.68;102133.13;4788277;29;20030;-82
2022/09/22 11:26:57;;;;;;;3.00;0.60;;;;;;;18.18;74.59;102133.19;4824273;29;20111;-83
2022/09/22 11:29:55;;;;;;;3.33;0.93;;;;;;;18.29;73.65;102130.63;4810685;29;20032;-82
2022/09/22 11:32:35;;;;;;;2.83;0.68;;;;;;;18.24;73.11;102122.25;4804550;30;20083;-82
2022/09/22 11:35:18;;;;;;;2.38;0.63;;;;;;;18.32;71.53;102137.53;4806814;29;20034;-81
2022/09/22 11:37:49;;;;;;;2.58;0.55;;;;;;;18.35;72.96;102138.97;4820162;29;20027;-80
2022/09/22 11:40:31;;;;;;;4.50;0.70;;;;;;;18.40;72.85;102141.88;4819594;29;20073;-82
2022/09/22 11:42:59;;;;;;;3.15;0.68;;;;;;;17.58;73.22;101983.69;5032572;23;20068;-80
2022/09/22 11:45:36;;;;;;;4.53;0.68;;;;;;;17.13;72.85;101940.97;4879139;29;20025;-79
2022/09/22 11:48:33;;;;;;;6.50;0.73;;;;;;;17.35;73.18;101971.47;4863025;29;20117;-81
2022/09/22 11:51:21;;;;;;;3.53;0.80;;;;;;;18.38;73.32;102131.22;4839085;29;20070;-80
2022/09/22 11:53:59;;;;;;;3.65;0.90;;;;;;;18.32;74.42;102129.34;4871895;29;20039;-80
2022/09/22 11:56:37;;;;;;;5.53;0.90;;;;;;;18.29;75.45;102133.34;4862923;29;20033;-81
2022/09/22 11:59:23;;;;;;;4.45;0.93;;;;;;;18.00;76.06;102098.50;4872578;29;20041;-80
2022/09/22 12:01:52;;;;;;;5.68;1.13;;;;;;;18.14;75.83;102121.88;4849612;29;20025;-79